sensor_id;sensor_type;location;lat;lon;timestamp;pressure;altitude;pressure_sealevel;temperature;humidity
10946;BME280;5525;42.648;23.368;2023-08-07T00:01:16;94134.44;;;16.54;100.00
10946;BME280;5525;42.648;23.368;2023-08-07T00:03:44;94131.00;;;16.57;100.00
10946;BME280;5525;42.648;23.368;2023-08-07T00:06:11;94130.47;;;16.45;100.00
10946;BME280;5525;42.648;23.368;2023-08-07T00:08:37;94128.41;;;16.38;100.00
10946;BME280;5525;42.648;23.368;2023-08-07T00:11:05;94139.69;;;16.37;100.00
10946;BME280;5525;42.648;23.368;2023-08-07T00:13:32;94127.25;;;16.36;100.00
10946;BME280;5525;42.648;23.368;2023-08-07T00:15:58;94110.75;;;16.25;100.00
10946;BME280;5525;42.648;23.368;2023-08-07T00:18:25;94138.19;;;16.43;100.00
10946;BME280;5525;42.648;23.368;2023-08-07T00:20:53;94124.53;;;16.39;100.00
10946;BME280;5525;42.648;23.368;2023-08-07T00:23:20;94121.03;;;16.39;100.00
10946;BME280;5525;42.648;23.368;2023-08-07T00:25:46;94134.28;;;16.40;100.00
10946;BME280;5525;42.648;23.368;2023-08-07T00:28:13;94131.53;;;16.37;100.00
10946;BME280;5525;42.648;23.368;2023-08-07T00:30:40;94126.44;;;16.35;100.00
10946;BME280;5525;42.648;23.368;2023-08-07T00:33:06;94128.38;;;16.35;100.00
10946;BME280;5525;42.648;23.368;2023-08-07T00:35:33;94139.41;;;16.45;100.00
10946;BME280;5525;42.648;23.368;2023-08-07T00:38:01;94134.38;;;16.47;100.00
10946;BME280;5525;42.648;23.368;2023-08-07T00:40:28;94136.31;;;16.47;100.00
10946;BME280;5525;42.648;23.368;2023-08-07T00:43:02;94145.25;;;16.44;100.00
10946;BME280;5525;42.648;23.368;2023-08-07T00:45:28;94125.59;;;16.31;100.00
10946;BME280;5525;42.648;23.368;2023-08-07T00:47:55;94160.38;;;16.41;100.00
10946;BME280;5525;42.648;23.368;2023-08-07T00:50:22;94162.31;;;16.41;100.00
10946;BME280;5525;42.648;23.368;2023-08-07T00:52:49;94155.66;;;16.38;100.00
10946;BME280;5525;42.648;23.368;2023-08-07T00:55:17;94160.75;;;16.40;100.00
10946;BME280;5525;42.648;23.368;2023-08-07T00:57:43;94170.97;;;16.46;100.00
10946;BME280;5525;42.648;23.368;2023-08-07T01:00:12;94165.41;;;16.39;100.00
10946;BME280;5525;42.648;23.368;2023-08-07T01:02:39;94170.19;;;16.46;100.00
10946;BME280;5525;42.648;23.368;2023-08-07T01:05:07;94168.91;;;16.40;100.00
10946;BME280;5525;42.648;23.368;2023-08-07T01:07:33;94148.13;;;16.25;100.00
10946;BME280;5525;42.648;23.368;2023-08-07T01:10:00;94181.38;;;16.41;100.00
10946;BME280;5525;42.648;23.368;2023-08-07T01:12:33;94171.03;;;16.53;100.00
10946;BME280;5525;42.648;23.368;2023-08-07T01:15:07;94186.97;;;16.51;100.00
10946;BME280;5525;42.648;23.368;2023-08-07T01:17:36;94190.06;;;16.50;100.00
10946;BME280;5525;42.648;23.368;2023-08-07T01:20:05;94199.38;;;16.45;100.00
10946;BME280;5525;42.648;23.368;2023-08-07T01:22:33;94191.91;;;16.42;100.00
10946;BME280;5525;42.648;23.368;2023-08-07T01:25:00;94191.78;;;16.32;100.00
10946;BME280;5525;42.648;23.368;2023-08-07T01:27:35;94192.16;;;16.30;100.00
10946;BME280;5525;42.648;23.368;2023-08-07T01:30:11;94188.25;;;16.31;100.00
10946;BME280;5525;42.648;23.368;2023-08-07T01:32:43;94190.59;;;16.29;100.00
10946;BME280;5525;42.648;23.368;2023-08-07T01:35:16;94183.47;;;16.21;100.00
10946;BME280;5525;42.648;23.368;2023-08-07T01:37:45;94177.97;;;16.14;100.00
10946;BME280;5525;42.648;23.368;2023-08-07T01:40:13;94175.50;;;16.06;100.00
10946;BME280;5525;42.648;23.368;2023-08-07T01:42:40;94176.59;;;16.01;100.00
10946;BME280;5525;42.648;23.368;2023-08-07T01:45:08;94175.06;;;16.04;100.00
10946;BME280;5525;42.648;23.368;2023-08-07T01:47:35;94172.66;;;15.95;100.00
10946;BME280;5525;42.648;23.368;2023-08-07T01:50:02;94180.44;;;15.97;100.00
10946;BME280;5525;42.648;23.368;2023-08-07T01:52:28;94180.44;;;15.97;100.00
10946;BME280;5525;42.648;23.368;2023-08-07T01:54:56;94184.47;;;16.06;100.00
10946;BME280;5525;42.648;23.368;2023-08-07T01:57:23;94192.66;;;16.10;100.00
10946;BME280;5525;42.648;23.368;2023-08-07T01:59:52;94195.03;;;16.11;100.00
10946;BME280;5525;42.648;23.368;2023-08-07T02:02:18;94193.44;;;16.10;100.00
10946;BME280;5525;42.648;23.368;2023-08-07T02:04:45;94197.28;;;16.06;100.00
10946;BME280;5525;42.648;23.368;2023-08-07T02:07:12;94201.50;;;16.00;100.00
10946;BME280;5525;42.648;23.368;2023-08-07T02:09:38;94208.59;;;16.08;100.00
10946;BME280;5525;42.648;23.368;2023-08-07T02:12:07;94200.00;;;16.06;100.00
10946;BME280;5525;42.648;23.368;2023-08-07T02:14:34;94199.31;;;15.83;100.00
10946;BME280;5525;42.648;23.368;2023-08-07T02:17:01;94206.94;;;15.74;100.00
10946;BME280;5525;42.648;23.368;2023-08-07T02:19:27;94214.91;;;15.86;100.00
10946;BME280;5525;42.648;23.368;2023-08-07T02:21:54;94216.47;;;15.87;100.00
10946;BME280;5525;42.648;23.368;2023-08-07T02:24:21;94227.53;;;15.97;100.00
10946;BME280;5525;42.648;23.368;2023-08-07T02:26:47;94224.44;;;15.99;100.00
10946;BME280;5525;42.648;23.368;2023-08-07T02:29:15;94222.28;;;15.85;100.00
10946;BME280;5525;42.648;23.368;2023-08-07T02:31:42;94227.69;;;15.82;100.00
10946;BME280;5525;42.648;23.368;2023-08-07T02:34:08;94222.19;;;15.78;100.00
10946;BME280;5525;42.648;23.368;2023-08-07T02:36:35;94216.81;;;15.82;100.00
10946;BME280;5525;42.648;23.368;2023-08-07T02:39:03;94220.56;;;15.74;100.00
10946;BME280;5525;42.648;23.368;2023-08-07T02:41:30;94229.69;;;15.85;100.00
10946;BME280;5525;42.648;23.368;2023-08-07T02:43:57;94227.69;;;15.82;100.00
10946;BME280;5525;42.648;23.368;2023-08-07T02:46:25;94219.03;;;15.76;100.00
10946;BME280;5525;42.648;23.368;2023-08-07T02:48:52;94234.09;;;15.70;100.00
10946;BME280;5525;42.648;23.368;2023-08-07T02:51:19;94220.94;;;15.72;100.00
10946;BME280;5525;42.648;23.368;2023-08-07T02:53:45;94231.88;;;15.76;100.00
10946;BME280;5525;42.648;23.368;2023-08-07T02:56:12;94238.41;;;15.71;100.00
10946;BME280;5525;42.648;23.368;2023-08-07T02:58:38;94226.16;;;15.58;100.00
10946;BME280;5525;42.648;23.368;2023-08-07T03:01:05;94238.72;;;15.66;100.00
10946;BME280;5525;42.648;23.368;2023-08-07T03:03:33;94249.84;;;15.80;100.00
10946;BME280;5525;42.648;23.368;2023-08-07T03:06:00;94249.84;;;15.80;100.00
10946;BME280;5525;42.648;23.368;2023-08-07T03:08:27;94252.22;;;15.85;100.00
10946;BME280;5525;42.648;23.368;2023-08-07T03:10:55;94252.78;;;15.94;100.00
10946;BME280;5525;42.648;23.368;2023-08-07T03:13:22;94246.78;;;16.11;100.00
10946;BME280;5525;42.648;23.368;2023-08-07T03:15:50;94253.31;;;16.07;100.00
10946;BME280;5525;42.648;23.368;2023-08-07T03:18:16;94244.97;;;15.93;100.00
10946;BME280;5525;42.648;23.368;2023-08-07T03:20:45;94261.81;;;15.76;100.00
10946;BME280;5525;42.648;23.368;2023-08-07T03:23:11;94264.19;;;15.77;100.00
10946;BME280;5525;42.648;23.368;2023-08-07T03:25:38;94271.03;;;15.68;100.00
10946;BME280;5525;42.648;23.368;2023-08-07T03:28:05;94276.06;;;15.92;100.00
10946;BME280;5525;42.648;23.368;2023-08-07T03:30:31;94276.72;;;15.85;100.00
10946;BME280;5525;42.648;23.368;2023-08-07T03:32:58;94273.41;;;15.95;100.00
10946;BME280;5525;42.648;23.368;2023-08-07T03:35:25;94276.03;;;15.88;100.00
10946;BME280;5525;42.648;23.368;2023-08-07T03:37:53;94278.78;;;15.92;100.00
10946;BME280;5525;42.648;23.368;2023-08-07T03:40:19;94277.94;;;15.88;100.00
10946;BME280;5525;42.648;23.368;2023-08-07T03:42:46;94287.81;;;15.96;100.00
10946;BME280;5525;42.648;23.368;2023-08-07T03:45:13;94286.53;;;15.90;100.00
10946;BME280;5525;42.648;23.368;2023-08-07T03:47:40;94290.41;;;15.89;100.00
10946;BME280;5525;42.648;23.368;2023-08-07T03:50:07;94284.06;;;15.81;100.00
10946;BME280;5525;42.648;23.368;2023-08-07T03:52:34;94292.66;;;15.83;100.00
10946;BME280;5525;42.648;23.368;2023-08-07T03:55:02;94295.78;;;15.85;100.00
10946;BME280;5525;42.648;23.368;2023-08-07T03:57:28;94295.41;;;15.87;100.00
10946;BME280;5525;42.648;23.368;2023-08-07T03:59:55;94294.81;;;15.97;100.00
10946;BME280;5525;42.648;23.368;2023-08-07T04:02:22;94301.09;;;16.01;100.00
10946;BME280;5525;42.648;23.368;2023-08-07T04:04:48;94311.16;;;16.23;100.00
10946;BME280;5525;42.648;23.368;2023-08-07T04:07:15;94322.69;;;16.39;100.00
10946;BME280;5525;42.648;23.368;2023-08-07T04:09:42;94324.00;;;16.48;100.00
10946;BME280;5525;42.648;23.368;2023-08-07T04:12:10;94310.31;;;16.74;100.00
10946;BME280;5525;42.648;23.368;2023-08-07T04:14:36;94313.22;;;16.88;100.00
10946;BME280;5525;42.648;23.368;2023-08-07T04:17:03;94315.56;;;16.87;100.00
10946;BME280;5525;42.648;23.368;2023-08-07T04:19:30;94319.59;;;16.70;100.00
10946;BME280;5525;42.648;23.368;2023-08-07T04:21:57;94326.50;;;16.60;100.00
10946;BME280;5525;42.648;23.368;2023-08-07T04:24:23;94332.09;;;16.71;100.00
10946;BME280;5525;42.648;23.368;2023-08-07T04:26:50;94327.16;;;16.80;100.00
10946;BME280;5525;42.648;23.368;2023-08-07T04:29:18;94323.66;;;17.13;100.00
10946;BME280;5525;42.648;23.368;2023-08-07T04:31:45;94315.38;;;17.06;100.00
10946;BME280;5525;42.648;23.368;2023-08-07T04:34:11;94329.47;;;17.11;100.00
10946;BME280;5525;42.648;23.368;2023-08-07T04:36:38;94332.13;;;17.41;100.00
10946;BME280;5525;42.648;23.368;2023-08-07T04:39:05;94334.56;;;17.46;100.00
10946;BME280;5525;42.648;23.368;2023-08-07T04:41:32;94325.09;;;18.23;100.00
10946;BME280;5525;42.648;23.368;2023-08-07T04:43:59;94335.28;;;18.95;100.00
10946;BME280;5525;42.648;23.368;2023-08-07T04:46:27;94327.91;;;19.06;100.00
10946;BME280;5525;42.648;23.368;2023-08-07T04:48:53;94337.19;;;20.26;100.00
10946;BME280;5525;42.648;23.368;2023-08-07T04:51:20;94331.94;;;21.08;100.00
10946;BME280;5525;42.648;23.368;2023-08-07T04:53:46;94310.31;;;22.44;100.00
10946;BME280;5525;42.648;23.368;2023-08-07T04:56:16;94325.25;;;23.21;100.00
10946;BME280;5525;42.648;23.368;2023-08-07T04:58:42;94324.38;;;24.41;100.00
10946;BME280;5525;42.648;23.368;2023-08-07T05:01:09;94328.41;;;25.80;100.00
10946;BME280;5525;42.648;23.368;2023-08-07T05:03:37;94337.97;;;25.95;99.10
10946;BME280;5525;42.648;23.368;2023-08-07T05:06:04;94339.69;;;24.68;100.00
10946;BME280;5525;42.648;23.368;2023-08-07T05:08:31;94334.19;;;25.31;100.00
10946;BME280;5525;42.648;23.368;2023-08-07T05:10:58;94336.31;;;27.42;89.11
10946;BME280;5525;42.648;23.368;2023-08-07T05:13:24;94334.50;;;27.77;83.44
10946;BME280;5525;42.648;23.368;2023-08-07T05:15:51;94333.03;;;27.72;82.70
10946;BME280;5525;42.648;23.368;2023-08-07T05:18:18;94331.91;;;28.24;79.22
10946;BME280;5525;42.648;23.368;2023-08-07T05:20:46;94333.00;;;27.03;83.26
10946;BME280;5525;42.648;23.368;2023-08-07T05:23:12;94326.38;;;26.36;87.38
10946;BME280;5525;42.648;23.368;2023-08-07T05:25:39;94319.53;;;27.33;82.62
10946;BME280;5525;42.648;23.368;2023-08-07T05:28:06;94329.06;;;27.32;82.53
10946;BME280;5525;42.648;23.368;2023-08-07T05:30:32;94329.53;;;29.53;70.30
10946;BME280;5525;42.648;23.368;2023-08-07T05:33:00;94342.81;;;29.92;66.57
10946;BME280;5525;42.648;23.368;2023-08-07T05:35:26;94339.38;;;28.52;69.94
10946;BME280;5525;42.648;23.368;2023-08-07T05:37:54;94333.72;;;28.55;72.74
10946;BME280;5525;42.648;23.368;2023-08-07T05:40:21;94316.81;;;28.25;72.16
10946;BME280;5525;42.648;23.368;2023-08-07T05:42:47;94327.16;;;27.70;72.06
10946;BME280;5525;42.648;23.368;2023-08-07T05:45:14;94327.13;;;29.21;68.58
10946;BME280;5525;42.648;23.368;2023-08-07T05:47:41;94324.53;;;29.48;65.56
10946;BME280;5525;42.648;23.368;2023-08-07T05:50:08;94340.06;;;29.71;64.26
10946;BME280;5525;42.648;23.368;2023-08-07T05:52:35;94331.03;;;28.64;65.17
10946;BME280;5525;42.648;23.368;2023-08-07T05:55:03;94347.88;;;29.63;62.70
10946;BME280;5525;42.648;23.368;2023-08-07T05:57:30;94340.94;;;30.81;58.51
10946;BME280;5525;42.648;23.368;2023-08-07T05:59:57;94347.47;;;29.95;58.19
10946;BME280;5525;42.648;23.368;2023-08-07T06:02:24;94343.69;;;28.65;62.65
10946;BME280;5525;42.648;23.368;2023-08-07T06:04:52;94337.81;;;28.26;65.08
10946;BME280;5525;42.648;23.368;2023-08-07T06:07:19;94350.31;;;29.61;59.67
10946;BME280;5525;42.648;23.368;2023-08-07T06:09:46;94346.16;;;29.44;59.65
10946;BME280;5525;42.648;23.368;2023-08-07T06:12:14;94340.75;;;29.84;59.93
10946;BME280;5525;42.648;23.368;2023-08-07T06:14:40;94336.97;;;30.21;56.60
10946;BME280;5525;42.648;23.368;2023-08-07T06:17:08;94326.28;;;30.68;56.70
10946;BME280;5525;42.648;23.368;2023-08-07T06:19:35;94336.19;;;31.90;51.93
10946;BME280;5525;42.648;23.368;2023-08-07T06:22:01;94335.59;;;30.74;54.42
10946;BME280;5525;42.648;23.368;2023-08-07T06:24:28;94333.09;;;31.79;51.84
10946;BME280;5525;42.648;23.368;2023-08-07T06:26:55;94335.59;;;32.78;48.09
10946;BME280;5525;42.648;23.368;2023-08-07T06:29:23;94329.50;;;32.05;48.64
10946;BME280;5525;42.648;23.368;2023-08-07T06:31:49;94317.75;;;32.76;46.98
10946;BME280;5525;42.648;23.368;2023-08-07T06:34:16;94325.44;;;34.77;43.22
10946;BME280;5525;42.648;23.368;2023-08-07T06:36:43;94335.38;;;34.43;41.93
10946;BME280;5525;42.648;23.368;2023-08-07T06:39:09;94320.88;;;33.25;42.96
10946;BME280;5525;42.648;23.368;2023-08-07T06:41:37;94331.91;;;35.98;37.66
10946;BME280;5525;42.648;23.368;2023-08-07T06:44:04;94331.13;;;35.51;37.35
10946;BME280;5525;42.648;23.368;2023-08-07T06:46:32;94331.75;;;35.41;35.57
10946;BME280;5525;42.648;23.368;2023-08-07T06:48:59;94345.31;;;35.83;32.91
10946;BME280;5525;42.648;23.368;2023-08-07T06:51:25;94342.94;;;37.68;30.62
10946;BME280;5525;42.648;23.368;2023-08-07T06:53:52;94340.19;;;36.89;29.87
10946;BME280;5525;42.648;23.368;2023-08-07T06:56:19;94338.38;;;36.04;31.10
10946;BME280;5525;42.648;23.368;2023-08-07T06:58:46;94344.09;;;34.94;30.52
10946;BME280;5525;42.648;23.368;2023-08-07T07:01:12;94347.69;;;36.72;29.44
10946;BME280;5525;42.648;23.368;2023-08-07T07:03:40;94349.19;;;36.67;29.67
10946;BME280;5525;42.648;23.368;2023-08-07T07:06:07;94357.28;;;38.67;27.86
10946;BME280;5525;42.648;23.368;2023-08-07T07:08:33;94349.19;;;36.67;29.52
10946;BME280;5525;42.648;23.368;2023-08-07T07:11:00;94335.03;;;37.72;27.40
10946;BME280;5525;42.648;23.368;2023-08-07T07:13:27;94339.69;;;37.33;28.26
10946;BME280;5525;42.648;23.368;2023-08-07T07:15:54;94338.25;;;38.23;27.43
10946;BME280;5525;42.648;23.368;2023-08-07T07:18:20;94339.31;;;39.09;25.97
10946;BME280;5525;42.648;23.368;2023-08-07T07:20:56;94326.44;;;37.55;27.87
10946;BME280;5525;42.648;23.368;2023-08-07T07:23:23;94342.13;;;38.64;26.10
10946;BME280;5525;42.648;23.368;2023-08-07T07:25:49;94348.16;;;37.97;26.14
10946;BME280;5525;42.648;23.368;2023-08-07T07:28:16;94331.38;;;35.73;29.86
10946;BME280;5525;42.648;23.368;2023-08-07T07:30:42;94329.50;;;35.45;29.33
10946;BME280;5525;42.648;23.368;2023-08-07T07:33:09;94327.38;;;35.40;30.87
10946;BME280;5525;42.648;23.368;2023-08-07T07:35:37;94329.31;;;35.74;29.71
10946;BME280;5525;42.648;23.368;2023-08-07T07:38:06;94329.38;;;36.82;29.30
10946;BME280;5525;42.648;23.368;2023-08-07T07:40:34;94336.34;;;37.29;29.23
10946;BME280;5525;42.648;23.368;2023-08-07T07:43:01;94344.75;;;39.86;26.88
10946;BME280;5525;42.648;23.368;2023-08-07T07:45:27;94353.78;;;40.66;24.53
10946;BME280;5525;42.648;23.368;2023-08-07T07:47:54;94345.69;;;38.21;27.09
10946;BME280;5525;42.648;23.368;2023-08-07T07:50:21;94341.47;;;39.60;25.38
10946;BME280;5525;42.648;23.368;2023-08-07T07:52:48;94336.44;;;38.20;26.58
10946;BME280;5525;42.648;23.368;2023-08-07T07:55:16;94341.38;;;39.03;25.69
10946;BME280;5525;42.648;23.368;2023-08-07T07:57:43;94333.88;;;40.01;24.65
10946;BME280;5525;42.648;23.368;2023-08-07T08:00:11;94331.75;;;40.12;24.53
10946;BME280;5525;42.648;23.368;2023-08-07T08:02:39;94340.59;;;40.74;23.52
10946;BME280;5525;42.648;23.368;2023-08-07T08:05:08;94320.19;;;35.79;28.08
10946;BME280;5525;42.648;23.368;2023-08-07T08:07:36;94318.38;;;37.79;27.30
10946;BME280;5525;42.648;23.368;2023-08-07T08:10:05;94329.06;;;38.61;26.45
10946;BME280;5525;42.648;23.368;2023-08-07T08:12:34;94320.53;;;38.50;25.63
10946;BME280;5525;42.648;23.368;2023-08-07T08:15:01;94318.75;;;38.86;25.81
10946;BME280;5525;42.648;23.368;2023-08-07T08:17:28;94331.78;;;39.39;25.38
10946;BME280;5525;42.648;23.368;2023-08-07T08:19:55;94325.56;;;37.80;26.80
10946;BME280;5525;42.648;23.368;2023-08-07T08:22:21;94329.28;;;38.52;25.64
10946;BME280;5525;42.648;23.368;2023-08-07T08:24:48;94322.59;;;38.17;26.17
10946;BME280;5525;42.648;23.368;2023-08-07T08:27:15;94322.09;;;38.73;25.50
10946;BME280;5525;42.648;23.368;2023-08-07T08:29:44;94314.41;;;38.85;25.38
10946;BME280;5525;42.648;23.368;2023-08-07T08:32:11;94325.97;;;40.99;23.41
10946;BME280;5525;42.648;23.368;2023-08-07T08:34:38;94314.44;;;41.21;22.98
10946;BME280;5525;42.648;23.368;2023-08-07T08:37:05;94317.69;;;41.55;23.00
10946;BME280;5525;42.648;23.368;2023-08-07T08:39:32;94308.28;;;37.56;25.80
10946;BME280;5525;42.648;23.368;2023-08-07T08:41:59;94303.19;;;37.66;26.28
10946;BME280;5525;42.648;23.368;2023-08-07T08:44:26;94306.09;;;39.37;25.29
10946;BME280;5525;42.648;23.368;2023-08-07T08:46:59;94304.47;;;42.19;22.56
10946;BME280;5525;42.648;23.368;2023-08-07T08:49:30;94305.03;;;40.08;23.34
10946;BME280;5525;42.648;23.368;2023-08-07T08:51:59;94305.19;;;38.51;26.40
10946;BME280;5525;42.648;23.368;2023-08-07T08:54:26;94299.22;;;39.16;25.35
10946;BME280;5525;42.648;23.368;2023-08-07T08:56:53;94301.75;;;40.39;23.80
10946;BME280;5525;42.648;23.368;2023-08-07T08:59:21;94296.88;;;41.90;21.43
10946;BME280;5525;42.648;23.368;2023-08-07T09:01:48;94307.69;;;44.14;20.46
10946;BME280;5525;42.648;23.368;2023-08-07T09:04:18;94297.59;;;44.26;20.19
10946;BME280;5525;42.648;23.368;2023-08-07T09:06:46;94299.25;;;44.09;19.74
10946;BME280;5525;42.648;23.368;2023-08-07T09:09:13;94294.94;;;43.30;20.11
10946;BME280;5525;42.648;23.368;2023-08-07T09:11:41;94281.41;;;41.48;20.83
10946;BME280;5525;42.648;23.368;2023-08-07T09:14:08;94279.91;;;39.47;23.65
10946;BME280;5525;42.648;23.368;2023-08-07T09:16:36;94273.31;;;40.56;21.64
10946;BME280;5525;42.648;23.368;2023-08-07T09:19:04;94279.66;;;42.56;22.17
10946;BME280;5525;42.648;23.368;2023-08-07T09:21:34;94285.50;;;43.48;20.69
10946;BME280;5525;42.648;23.368;2023-08-07T09:24:00;94283.03;;;43.57;19.55
10946;BME280;5525;42.648;23.368;2023-08-07T09:26:28;94270.00;;;41.53;21.65
10946;BME280;5525;42.648;23.368;2023-08-07T09:28:57;94272.84;;;42.46;21.20
10946;BME280;5525;42.648;23.368;2023-08-07T09:31:24;94268.50;;;41.52;21.00
10946;BME280;5525;42.648;23.368;2023-08-07T09:33:53;94266.88;;;43.07;20.27
10946;BME280;5525;42.648;23.368;2023-08-07T09:36:19;94261.00;;;41.07;20.76
10946;BME280;5525;42.648;23.368;2023-08-07T09:38:50;94257.31;;;42.16;20.90
10946;BME280;5525;42.648;23.368;2023-08-07T09:41:17;94250.31;;;40.94;21.76
10946;BME280;5525;42.648;23.368;2023-08-07T09:43:44;94256.09;;;43.71;20.16
10946;BME280;5525;42.648;23.368;2023-08-07T09:46:11;94253.00;;;42.78;20.20
10946;BME280;5525;42.648;23.368;2023-08-07T09:48:42;94268.13;;;42.36;20.43
10946;BME280;5525;42.648;23.368;2023-08-07T09:51:09;94261.38;;;43.67;20.63
10946;BME280;5525;42.648;23.368;2023-08-07T09:53:37;94247.28;;;44.08;19.17
10946;BME280;5525;42.648;23.368;2023-08-07T09:56:06;94260.56;;;43.80;19.40
10946;BME280;5525;42.648;23.368;2023-08-07T09:58:33;94252.50;;;41.92;20.38
10946;BME280;5525;42.648;23.368;2023-08-07T10:01:00;94253.00;;;41.72;22.39
10946;BME280;5525;42.648;23.368;2023-08-07T10:03:27;94255.59;;;41.09;21.66
10946;BME280;5525;42.648;23.368;2023-08-07T10:05:54;94246.28;;;39.90;22.08
10946;BME280;5525;42.648;23.368;2023-08-07T10:08:21;94250.22;;;39.70;22.36
10946;BME280;5525;42.648;23.368;2023-08-07T10:10:48;94243.53;;;40.79;21.75
10946;BME280;5525;42.648;23.368;2023-08-07T10:13:16;94245.00;;;41.09;21.43
10946;BME280;5525;42.648;23.368;2023-08-07T10:15:44;94241.56;;;38.61;24.46
10946;BME280;5525;42.648;23.368;2023-08-07T10:18:12;94248.72;;;41.23;21.86
10946;BME280;5525;42.648;23.368;2023-08-07T10:20:40;94244.66;;;41.98;20.95
10946;BME280;5525;42.648;23.368;2023-08-07T10:23:10;94237.09;;;39.67;22.37
10946;BME280;5525;42.648;23.368;2023-08-07T10:25:39;94245.00;;;41.95;20.81
10946;BME280;5525;42.648;23.368;2023-08-07T10:28:08;94246.88;;;42.87;19.95
10946;BME280;5525;42.648;23.368;2023-08-07T10:30:40;94252.47;;;44.30;19.49
10946;BME280;5525;42.648;23.368;2023-08-07T10:33:08;94250.31;;;41.18;21.22
10946;BME280;5525;42.648;23.368;2023-08-07T10:35:36;94245.88;;;40.75;22.27
10946;BME280;5525;42.648;23.368;2023-08-07T10:38:05;94240.50;;;41.43;21.48
10946;BME280;5525;42.648;23.368;2023-08-07T10:40:33;94231.53;;;41.76;21.84
10946;BME280;5525;42.648;23.368;2023-08-07T10:43:12;94230.75;;;38.71;24.09
10946;BME280;5525;42.648;23.368;2023-08-07T10:45:40;94234.84;;;40.06;22.11
10946;BME280;5525;42.648;23.368;2023-08-07T10:48:08;94234.69;;;40.29;22.55
10946;BME280;5525;42.648;23.368;2023-08-07T10:50:37;94236.31;;;41.68;21.25
10946;BME280;5525;42.648;23.368;2023-08-07T10:53:19;94225.94;;;40.86;21.64
10946;BME280;5525;42.648;23.368;2023-08-07T10:55:46;94226.66;;;41.58;21.68
10946;BME280;5525;42.648;23.368;2023-08-07T10:58:24;94227.47;;;43.17;20.11
10946;BME280;5525;42.648;23.368;2023-08-07T11:01:16;94222.53;;;41.59;20.74
10946;BME280;5525;42.648;23.368;2023-08-07T11:03:44;94221.81;;;40.87;21.72
10946;BME280;5525;42.648;23.368;2023-08-07T11:06:11;94202.78;;;40.58;21.65
10946;BME280;5525;42.648;23.368;2023-08-07T11:08:38;94203.16;;;39.73;22.69
10946;BME280;5525;42.648;23.368;2023-08-07T11:11:06;94200.88;;;40.06;23.26
10946;BME280;5525;42.648;23.368;2023-08-07T11:13:33;94190.75;;;40.52;22.04
10946;BME280;5525;42.648;23.368;2023-08-07T11:16:02;94197.06;;;40.04;22.87
10946;BME280;5525;42.648;23.368;2023-08-07T11:18:30;94190.91;;;40.00;22.26
10946;BME280;5525;42.648;23.368;2023-08-07T11:20:58;94177.72;;;36.53;25.60
10946;BME280;5525;42.648;23.368;2023-08-07T11:23:27;94172.06;;;35.08;27.12
10946;BME280;5525;42.648;23.368;2023-08-07T11:25:54;94171.97;;;33.35;30.19
10946;BME280;5525;42.648;23.368;2023-08-07T11:28:22;94164.00;;;31.87;32.70
10946;BME280;5525;42.648;23.368;2023-08-07T11:30:51;94160.84;;;31.43;33.24
10946;BME280;5525;42.648;23.368;2023-08-07T11:33:20;94156.09;;;31.26;33.66
10946;BME280;5525;42.648;23.368;2023-08-07T11:35:47;94152.94;;;31.42;33.89
10946;BME280;5525;42.648;23.368;2023-08-07T11:38:29;94148.41;;;32.04;33.20
10946;BME280;5525;42.648;23.368;2023-08-07T11:40:57;94150.47;;;32.50;32.56
10946;BME280;5525;42.648;23.368;2023-08-07T11:43:27;94155.50;;;34.15;31.34
10946;BME280;5525;42.648;23.368;2023-08-07T11:45:54;94164.44;;;35.60;29.46
10946;BME280;5525;42.648;23.368;2023-08-07T11:48:24;94167.47;;;37.03;26.90
10946;BME280;5525;42.648;23.368;2023-08-07T11:50:52;94169.16;;;35.23;28.75
10946;BME280;5525;42.648;23.368;2023-08-07T11:53:19;94162.00;;;35.42;28.84
10946;BME280;5525;42.648;23.368;2023-08-07T11:55:47;94167.06;;;35.69;27.99
10946;BME280;5525;42.648;23.368;2023-08-07T11:58:14;94151.00;;;35.18;29.04
10946;BME280;5525;42.648;23.368;2023-08-07T12:00:43;94151.22;;;35.35;29.12
10946;BME280;5525;42.648;23.368;2023-08-07T12:03:25;94149.25;;;34.06;30.53
10946;BME280;5525;42.648;23.368;2023-08-07T12:05:52;94146.03;;;33.49;31.41
10946;BME280;5525;42.648;23.368;2023-08-07T12:08:19;94142.66;;;31.66;33.96
10946;BME280;5525;42.648;23.368;2023-08-07T12:10:49;94142.63;;;30.97;35.98
10946;BME280;5525;42.648;23.368;2023-08-07T12:13:15;94135.22;;;30.76;36.38
10946;BME280;5525;42.648;23.368;2023-08-07T12:15:42;94120.63;;;31.08;35.92
10946;BME280;5525;42.648;23.368;2023-08-07T12:18:09;94125.88;;;31.15;36.06
10946;BME280;5525;42.648;23.368;2023-08-07T12:20:38;94121.75;;;30.47;38.12
10946;BME280;5525;42.648;23.368;2023-08-07T12:23:12;94127.94;;;29.85;38.14
10946;BME280;5525;42.648;23.368;2023-08-07T12:25:41;94124.56;;;29.99;38.99
10946;BME280;5525;42.648;23.368;2023-08-07T12:28:07;94120.84;;;29.93;38.80
10946;BME280;5525;42.648;23.368;2023-08-07T12:30:34;94113.44;;;30.08;39.01
10946;BME280;5525;42.648;23.368;2023-08-07T12:33:01;94120.22;;;29.80;40.09
10946;BME280;5525;42.648;23.368;2023-08-07T12:35:29;94116.81;;;29.54;40.62
10946;BME280;5525;42.648;23.368;2023-08-07T12:37:57;94108.16;;;29.83;41.22
10946;BME280;5525;42.648;23.368;2023-08-07T12:40:24;94123.53;;;29.26;42.20
10946;BME280;5525;42.648;23.368;2023-08-07T12:42:51;94117.63;;;29.54;43.47
10946;BME280;5525;42.648;23.368;2023-08-07T12:45:18;94111.22;;;29.76;42.82
10946;BME280;5525;42.648;23.368;2023-08-07T12:47:45;94122.13;;;29.61;43.87
10946;BME280;5525;42.648;23.368;2023-08-07T12:50:12;94123.72;;;29.40;45.03
10946;BME280;5525;42.648;23.368;2023-08-07T12:52:39;94136.69;;;29.34;46.34
10946;BME280;5525;42.648;23.368;2023-08-07T12:55:08;94129.91;;;29.14;46.97
10946;BME280;5525;42.648;23.368;2023-08-07T12:57:35;94126.72;;;29.46;47.42